Time;durP1;ratioP1;P1;durP2;ratioP2;P2;SDS_P1;SDS_P2;PMS_P1;PMS_P2;Temp;Humidity;BMP_temperature;BMP_pressure;BME280_temperature;BME280_humidity;BME280_pressure;Samples;Min_cycle;Max_cycle;Signal;HPM_P1;HPM_P2
2023/01/03 00:00:48;;;;;;;;;22.75;22.75;;;;;10.48;68.46;101858.31;5104371;27;46140;-58
2023/01/03 00:03:16;;;;;;;;;28.50;25.75;;;;;10.42;68.46;101853.97;5113760;27;45572;-57
2023/01/03 00:05:42;;;;;;;;;28.50;27.00;;;;;10.48;67.83;101860.94;5114269;27;45446;-58
2023/01/03 00:08:08;;;;;;;;;24.50;24.25;;;;;10.43;68.14;101861.00;5103114;27;45666;-58
2023/01/03 00:10:33;;;;;;;;;27.00;23.75;;;;;10.43;68.34;101853.09;5117200;27;45455;-59
2023/01/03 00:12:59;;;;;;;;;26.50;24.25;;;;;10.49;67.67;101857.41;5116979;27;45634;-58
2023/01/03 00:15:24;;;;;;;;;24.33;21.33;;;;;10.54;67.57;101866.09;5116932;27;45446;-58
2023/01/03 00:17:51;;;;;;;;;24.33;21.67;;;;;10.50;67.93;101864.38;5116343;27;45545;-58
2023/01/03 00:20:16;;;;;;;;;21.33;21.33;;;;;10.53;68.20;101867.88;5111782;27;45513;-58
2023/01/03 00:22:42;;;;;;;;;21.33;21.33;;;;;10.54;67.58;101858.22;5115940;27;45493;-58
2023/01/03 00:25:08;;;;;;;;;22.33;20.33;;;;;10.55;67.68;101865.19;5116924;27;45531;-59
2023/01/03 00:27:33;;;;;;;;;22.00;21.33;;;;;10.57;67.72;101863.41;5116793;27;45475;-59
2023/01/03 00:29:58;;;;;;;;;23.67;19.67;;;;;10.59;67.83;101862.50;5116846;27;45880;-58
2023/01/03 00:32:24;;;;;;;;;29.67;26.00;;;;;10.58;67.11;101857.25;5108271;27;45480;-58
2023/01/03 00:34:49;;;;;;;;;22.00;20.67;;;;;10.59;67.09;101866.91;5112484;27;45441;-58
2023/01/03 00:37:14;;;;;;;;;22.67;22.67;;;;;10.56;67.86;101848.53;5116772;27;45440;-58
2023/01/03 00:39:40;;;;;;;;;21.67;21.67;;;;;10.54;68.05;101850.31;5116430;27;46583;-59
2023/01/03 00:42:06;;;;;;;;;26.00;21.67;;;;;10.60;67.60;101852.84;5115436;27;45501;-58
2023/01/03 00:44:32;;;;;;;;;21.33;18.33;;;;;10.57;67.77;101852.91;5116613;27;45454;-58
2023/01/03 00:46:57;;;;;;;;;24.00;23.00;;;;;10.55;67.29;101852.03;5116501;27;45515;-58
2023/01/03 00:49:23;;;;;;;;;21.67;17.67;;;;;10.51;67.24;101851.22;5114946;27;45561;-58
2023/01/03 00:51:49;;;;;;;;;24.33;22.00;;;;;10.47;67.11;101861.81;5116302;27;45393;-58
2023/01/03 00:54:15;;;;;;;;;21.67;21.67;;;;;10.47;67.54;101852.16;5115144;27;45546;-58
2023/01/03 00:56:45;;;;;;;;;19.33;19.33;;;;;10.45;67.39;101853.06;5116123;27;45573;-58
2023/01/03 00:59:12;;;;;;;;;21.00;17.00;;;;;10.44;68.29;101857.47;5108131;27;46565;-58
2023/01/03 01:02:03;;;;;;;;;20.00;19.00;;;;;10.44;67.56;101851.34;5112325;27;45505;-58
2023/01/03 01:04:30;;;;;;;;;19.00;16.67;;;;;10.41;67.05;101848.75;5112071;27;45550;-58
2023/01/03 01:07:01;;;;;;;;;23.33;21.00;;;;;10.38;68.42;101849.66;5116035;27;45753;-58
2023/01/03 01:09:30;;;;;;;;;21.33;17.67;;;;;10.34;68.18;101840.06;5115959;27;46181;-58
2023/01/03 01:11:56;;;;;;;;;20.67;19.00;;;;;10.32;68.35;101840.13;5115208;27;45469;-58
2023/01/03 01:14:24;;;;;;;;;13.67;13.67;;;;;10.40;67.48;101847.91;5116182;27;45508;-58
2023/01/03 01:16:50;;;;;;;;;15.33;15.33;;;;;10.37;67.31;101854.06;5116200;27;45655;-59
2023/01/03 01:19:17;;;;;;;;;19.00;19.00;;;;;10.27;68.27;101851.56;5115189;27;46164;-58
2023/01/03 01:21:43;;;;;;;;;20.33;20.33;;;;;10.23;68.34;101848.06;5115684;27;45475;-58
2023/01/03 01:24:09;;;;;;;;;19.00;18.67;;;;;10.30;67.91;101857.66;5115747;27;45393;-58
2023/01/03 01:26:34;;;;;;;;;17.33;16.67;;;;;10.28;68.15;101846.28;5113275;27;45524;-58
2023/01/03 01:28:59;;;;;;;;;16.33;16.33;;;;;10.35;68.16;101853.22;5114903;27;46128;-58
2023/01/03 01:31:25;;;;;;;;;20.33;19.33;;;;;10.36;67.57;101857.56;5115389;27;45522;-58
2023/01/03 01:33:52;;;;;;;;;20.33;20.00;;;;;10.38;68.35;101865.44;5110929;27;45505;-58
2023/01/03 01:36:30;;;;;;;;;21.00;19.00;;;;;10.31;67.59;101855.91;5115990;27;45543;-58
2023/01/03 01:39:07;;;;;;;;;18.33;17.00;;;;;10.30;67.75;101864.69;5114344;27;45752;-58
2023/01/03 01:44:54;;;;;;;;;17.67;17.67;;;;;10.26;68.10;101866.47;5115673;27;45506;-58
2023/01/03 01:47:55;;;;;;;;;17.33;15.00;;;;;10.27;68.33;101869.97;5115391;27;45455;-58
2023/01/03 01:50:37;;;;;;;;;17.33;17.33;;;;;10.21;67.95;101859.50;5084007;27;47500;-58
2023/01/03 01:53:14;;;;;;;;;18.67;17.00;;;;;10.19;68.35;101867.44;5101373;27;45597;-58
2023/01/03 01:55:45;;;;;;;;;17.33;14.33;;;;;10.21;68.48;101864.75;5115590;27;45405;-58
2023/01/03 01:58:11;;;;;;;;;15.00;15.00;;;;;10.20;67.93;101863.03;5115397;27;45421;-58
2023/01/03 02:00:39;;;;;;;;;14.67;13.67;;;;;10.18;68.48;101873.56;5115225;27;46161;-58
2023/01/03 02:03:05;;;;;;;;;17.00;15.00;;;;;10.20;68.61;101878.81;5113410;27;45503;-58
2023/01/03 02:05:34;;;;;;;;;15.33;14.00;;;;;10.16;68.45;101875.38;5115194;27;45475;-58
2023/01/03 02:08:00;;;;;;;;;14.33;14.33;;;;;10.16;68.43;101884.13;5117611;27;45521;-58
2023/01/03 02:10:48;;;;;;;;;13.33;13.33;;;;;10.20;68.04;101882.31;5118884;27;45574;-58
2023/01/03 02:13:32;;;;;;;;;12.33;12.33;;;;;10.23;68.06;101877.00;5118637;27;45443;-58
2023/01/03 02:16:26;;;;;;;;;11.33;11.33;;;;;10.23;68.38;101878.75;5117517;27;45523;-58
2023/01/03 02:19:16;;;;;;;;;12.67;12.67;;;;;10.21;68.85;101880.53;5111156;27;45422;-58
2023/01/03 02:22:03;;;;;;;;;10.00;10.00;;;;;10.21;68.63;101889.31;5118325;27;45895;-58
2023/01/03 02:25:02;;;;;;;;;8.67;8.67;;;;;10.17;69.12;101884.97;5107975;27;45522;-58
2023/01/03 02:27:42;;;;;;;;;10.00;10.00;;;;;10.13;69.13;101883.28;5118858;27;45417;-58
2023/01/03 02:30:07;;;;;;;;;12.00;11.00;;;;;10.17;68.60;101891.09;5118996;27;45517;-58
2023/01/03 02:32:49;;;;;;;;;9.33;9.33;;;;;10.20;68.78;101892.81;5117736;27;45709;-58
2023/01/03 02:35:20;;;;;;;;;12.33;10.00;;;;;10.22;69.29;101891.03;5117052;27;46108;-58
2023/01/03 02:38:09;;;;;;;;;8.00;8.00;;;;;10.18;68.76;101881.44;5118688;27;45425;-58
2023/01/03 02:40:57;;;;;;;;;10.00;10.00;;;;;10.26;68.77;101892.75;5116759;27;45557;-58
2023/01/03 02:43:34;;;;;;;;;12.33;12.33;;;;;10.26;69.16;101891.88;5118657;27;45418;-58
2023/01/03 02:46:15;;;;;;;;;7.00;7.00;;;;;10.28;68.98;101898.00;5118288;27;45440;-58
2023/01/03 02:48:51;;;;;;;;;11.33;9.67;;;;;10.13;68.65;101857.00;5115522;27;45574;-58
2023/01/03 02:51:34;;;;;;;;;13.00;9.33;;;;;10.36;68.71;101890.88;5118319;27;45562;-58
2023/01/03 02:54:02;;;;;;;;;8.00;8.00;;;;;10.38;68.63;101899.63;5115900;27;45473;-58
2023/01/03 02:56:47;;;;;;;;;8.67;5.67;;;;;10.36;68.40;101885.63;5117903;27;45586;-58
2023/01/03 02:59:23;;;;;;;;;7.00;7.00;;;;;10.35;68.39;101887.41;5116223;27;45437;-58
2023/01/03 03:01:51;;;;;;;;;8.00;8.00;;;;;10.30;68.77;101877.84;5102103;27;45626;-59
2023/01/03 03:04:18;;;;;;;;;7.00;7.00;;;;;10.32;68.70;101892.69;5116727;27;45537;-58
2023/01/03 03:07:05;;;;;;;;;11.00;9.00;;;;;10.31;68.03;101896.19;5117420;27;45507;-58
2023/01/03 03:09:31;;;;;;;;;9.67;8.67;;;;;10.24;68.26;101889.28;5117678;27;45462;-58
2023/01/03 03:14:49;;;;;;;;;8.67;7.67;;;;;10.23;68.35;101899.78;5117294;27;45544;-58
2023/01/03 03:17:23;;;;;;;;;9.33;9.33;;;;;10.25;68.52;101888.38;5102777;27;45992;-58
2023/01/03 03:25:43;;;;;;;;;12.67;8.00;;;;;10.23;68.65;101882.25;5116967;27;45543;-58
2023/01/03 03:31:00;;;;;;;;;9.00;7.67;;;;;10.22;69.00;101891.03;5117122;27;45554;-59
2023/01/03 03:33:29;;;;;;;;;8.67;8.67;;;;;10.24;68.35;101899.78;5116175;27;45513;-58
2023/01/03 03:36:04;;;;;;;;;7.33;7.33;;;;;10.24;68.66;101898.94;5117283;27;47985;-58
2023/01/03 03:38:40;;;;;;;;;8.00;7.00;;;;;10.25;68.15;101898.88;5116807;27;45481;-59
2023/01/03 03:47:23;;;;;;;;;8.33;7.00;;;;;10.26;68.86;101897.13;5117194;27;45520;-58
2023/01/03 03:49:51;;;;;;;;;5.67;5.67;;;;;10.30;69.14;101909.38;5117507;27;45427;-58
2023/01/03 03:52:23;;;;;;;;;8.67;8.67;;;;;10.23;68.28;101886.66;5116211;27;45498;-58
2023/01/03 03:55:02;;;;;;;;;10.33;6.00;;;;;10.30;68.00;101905.00;5115589;27;45400;-58
2023/01/03 03:57:35;;;;;;;;;6.33;6.33;;;;;10.30;68.35;101899.75;5117174;27;46593;-58
2023/01/03 04:00:07;;;;;;;;;10.00;10.00;;;;;10.31;68.12;101898.84;5116597;27;45504;-58
2023/01/03 04:02:35;;;;;;;;;5.33;5.33;;;;;10.30;68.66;101902.38;5115087;27;45570;-58
2023/01/03 04:05:06;;;;;;;;;6.00;6.00;;;;;10.30;68.71;101904.13;5117456;27;45512;-58
2023/01/03 04:07:32;;;;;;;;;5.67;5.67;;;;;10.32;68.45;101900.59;5116875;27;46081;-58
2023/01/03 04:09:58;;;;;;;;;8.00;5.33;;;;;10.34;68.88;101900.56;5117094;27;45458;-58
2023/01/03 04:12:23;;;;;;;;;5.67;5.00;;;;;10.32;68.81;101883.94;5117049;27;45509;-58
2023/01/03 04:14:48;;;;;;;;;6.33;5.33;;;;;10.40;68.37;101895.22;5116499;27;45485;-58
2023/01/03 04:17:14;;;;;;;;;7.67;6.33;;;;;10.42;68.61;101900.47;5116092;27;45481;-58
2023/01/03 04:19:39;;;;;;;;;6.00;6.00;;;;;10.38;69.41;101892.59;5116476;27;45505;-58
2023/01/03 04:22:04;;;;;;;;;3.67;3.67;;;;;10.43;68.93;101903.06;5116953;27;45526;-59
2023/01/03 04:24:30;;;;;;;;;6.67;6.67;;;;;10.39;69.12;101889.06;5104755;27;45544;-58
2023/01/03 04:26:55;;;;;;;;;4.00;4.00;;;;;10.39;69.39;101904.84;5116911;27;48391;-58
2023/01/03 04:29:20;;;;;;;;;7.00;6.33;;;;;10.35;69.61;101897.91;5105021;27;45584;-58
2023/01/03 04:31:46;;;;;;;;;4.00;4.00;;;;;10.39;69.80;101906.63;5116065;27;45617;-58
2023/01/03 04:34:11;;;;;;;;;8.33;6.67;;;;;10.41;69.21;101904.84;5117127;27;45434;-58
2023/01/03 04:36:36;;;;;;;;;13.33;8.33;;;;;10.39;69.24;101909.25;5116322;27;49147;-59
2023/01/03 04:39:02;;;;;;;;;4.33;3.67;;;;;10.42;70.16;101917.09;5116582;27;45461;-59
2023/01/03 04:41:27;;;;;;;;;8.33;7.00;;;;;10.42;69.57;101925.00;5116671;27;45492;-59
2023/01/03 04:44:01;;;;;;;;;5.00;4.67;;;;;10.37;69.84;101927.69;5115700;27;45521;-58
2023/01/03 04:46:29;;;;;;;;;3.33;3.33;;;;;10.39;70.11;101922.41;5115960;27;46498;-59
2023/01/03 04:48:54;;;;;;;;;3.33;3.33;;;;;10.45;70.02;101924.97;5116356;27;45444;-58
2023/01/03 04:51:20;;;;;;;;;7.67;6.67;;;;;10.45;69.43;101924.06;5116427;27;45387;-58
2023/01/03 04:53:45;;;;;;;;;11.00;7.67;;;;;10.39;69.36;101923.25;5114338;27;45642;-58
2023/01/03 04:56:11;;;;;;;;;6.67;6.67;;;;;10.38;69.82;101925.94;5116264;27;46385;-58
2023/01/03 04:58:36;;;;;;;;;8.00;8.00;;;;;10.39;69.93;101928.53;5114248;27;45494;-58
2023/01/03 05:01:03;;;;;;;;;5.33;5.33;;;;;10.40;69.88;101942.56;5116693;27;45424;-58
2023/01/03 05:03:29;;;;;;;;;9.00;7.00;;;;;10.32;69.14;101929.53;5116099;27;45556;-59
2023/01/03 05:06:04;;;;;;;;;7.00;4.00;;;;;10.32;69.19;101937.41;5116140;27;45875;-59
2023/01/03 05:08:30;;;;;;;;;7.00;7.00;;;;;10.37;69.14;101950.50;5115057;27;45570;-59
2023/01/03 05:10:55;;;;;;;;;10.33;10.00;;;;;10.41;69.56;101946.06;5115962;27;45485;-58
2023/01/03 05:13:21;;;;;;;;;6.33;6.33;;;;;10.39;69.65;101941.69;5114853;27;45551;-58
2023/01/03 05:15:46;;;;;;;;;7.33;6.00;;;;;10.47;69.06;101945.97;5115827;27;45735;-61
2023/01/03 05:18:12;;;;;;;;;5.33;5.33;;;;;10.46;68.80;101952.13;5116004;27;45503;-58
2023/01/03 05:26:14;;;;;;;;;5.67;5.67;;;;;10.22;69.43;101941.00;5100937;27;45473;-58
2023/01/03 05:28:42;;;;;;;;;7.00;6.00;;;;;10.24;69.83;101947.13;5115334;27;45558;-58
2023/01/03 05:31:07;;;;;;;;;9.00;7.00;;;;;10.27;69.47;101957.63;5114272;27;45468;-59
2023/01/03 05:33:33;;;;;;;;;7.33;4.67;;;;;10.29;69.78;101952.34;5115510;27;45467;-58
2023/01/03 05:35:58;;;;;;;;;7.00;7.00;;;;;10.33;69.34;101964.56;5115327;27;45459;-59
2023/01/03 05:38:23;;;;;;;;;7.00;6.33;;;;;10.36;69.36;101961.91;5115753;27;45586;-58
2023/01/03 05:40:49;;;;;;;;;9.00;7.67;;;;;10.36;69.10;101954.88;5115025;27;45450;-58
2023/01/03 05:43:15;;;;;;;;;5.00;5.00;;;;;10.37;69.61;101954.00;5111581;27;45550;-58
2023/01/03 05:45:40;;;;;;;;;7.00;7.00;;;;;10.39;68.79;101956.59;5103805;27;46567;-58
2023/01/03 05:48:07;;;;;;;;;6.67;6.67;;;;;10.42;69.29;101958.31;5114356;27;45566;-58
2023/01/03 05:50:33;;;;;;;;;8.00;7.33;;;;;10.42;69.08;101960.94;5115479;27;45491;-59
2023/01/03 05:52:59;;;;;;;;;6.67;6.67;;;;;10.35;69.10;101954.91;5112034;27;45520;-58
2023/01/03 05:55:24;;;;;;;;;8.00;7.00;;;;;10.34;69.55;101950.53;5104807;27;45519;-58
2023/01/03 05:57:51;;;;;;;;;7.33;7.33;;;;;10.41;69.20;101964.47;5113558;27;45576;-59
2023/01/03 06:00:17;;;;;;;;;8.33;7.33;;;;;10.40;69.09;101966.25;5102530;27;45440;-58
2023/01/03 06:02:42;;;;;;;;;8.00;7.00;;;;;10.38;69.37;101946.97;5113549;27;45991;-58
2023/01/03 06:05:08;;;;;;;;;7.67;7.33;;;;;10.46;68.79;101962.66;5115309;27;46488;-58
2023/01/03 06:07:36;;;;;;;;;8.67;8.67;;;;;10.45;68.76;101956.53;5115166;27;45478;-58
2023/01/03 06:10:03;;;;;;;;;11.67;10.00;;;;;10.43;69.07;101954.81;5115456;27;45541;-59
2023/01/03 06:12:29;;;;;;;;;9.00;7.67;;;;;10.45;69.32;101955.63;5114751;27;45642;-58
2023/01/03 06:14:55;;;;;;;;;9.00;6.33;;;;;10.47;68.11;101965.25;5115013;27;45577;-58
2023/01/03 06:20:06;;;;;;;;;6.33;6.33;;;;;10.46;68.63;101975.81;5114680;27;45725;-58
2023/01/03 06:22:32;;;;;;;;;8.33;7.00;;;;;10.44;68.05;101977.59;5114296;27;45452;-58
2023/01/03 06:24:57;;;;;;;;;4.00;3.67;;;;;10.39;69.04;101973.22;5110854;27;45504;-59
2023/01/03 06:27:22;;;;;;;;;6.00;5.00;;;;;10.37;68.36;101972.41;5114591;27;45545;-58
2023/01/03 06:29:48;;;;;;;;;8.67;8.67;;;;;10.21;68.96;101946.25;5114919;27;45470;-58
2023/01/03 06:32:13;;;;;;;;;9.67;6.67;;;;;10.31;68.90;101971.59;5100187;27;45515;-58
2023/01/03 06:34:38;;;;;;;;;6.67;6.00;;;;;10.31;68.84;101977.72;5106756;27;46494;-58
2023/01/03 06:37:04;;;;;;;;;6.00;6.00;;;;;10.36;68.59;101986.44;5107191;27;45561;-58
2023/01/03 06:39:29;;;;;;;;;4.00;4.00;;;;;10.34;68.59;101982.06;5114880;27;45639;-59
2023/01/03 06:41:54;;;;;;;;;5.33;5.33;;;;;10.27;69.13;101990.91;5107584;27;45651;-59
2023/01/03 06:44:20;;;;;;;;;8.67;6.00;;;;;10.22;68.95;101984.84;5110452;27;50136;-59
2023/01/03 06:55:15;;;;;;;;;6.33;4.33;;;;;10.26;69.93;101994.41;5106986;27;45518;-58
2023/01/03 06:57:40;;;;;;;;;7.00;7.00;;;;;10.21;69.15;101986.59;5111850;27;45492;-59
2023/01/03 07:00:06;;;;;;;;;7.00;7.00;;;;;10.31;69.72;102001.38;5112066;27;45788;-59
2023/01/03 07:02:31;;;;;;;;;6.67;6.67;;;;;10.30;69.42;102004.06;5112688;27;45454;-59
2023/01/03 07:04:56;;;;;;;;;8.00;6.67;;;;;10.25;68.86;102000.56;5115863;27;45522;-60
2023/01/03 07:07:22;;;;;;;;;3.00;3.00;;;;;10.29;69.17;102012.81;5109317;27;45534;-58
2023/01/03 07:09:47;;;;;;;;;6.67;6.67;;;;;10.28;68.91;102001.44;5117357;27;45508;-57
2023/01/03 07:14:56;;;;;;;;;9.67;7.00;;;;;10.13;69.36;101999.81;5109171;27;45436;-58
2023/01/03 07:17:22;;;;;;;;;7.00;7.00;;;;;9.99;69.36;101979.81;5115391;27;45585;-58
2023/01/03 07:19:47;;;;;;;;;7.00;7.00;;;;;10.13;69.47;102014.72;5109617;27;45493;-58
2023/01/03 07:22:12;;;;;;;;;9.00;8.67;;;;;10.12;69.56;102018.22;5114729;27;45689;-58
2023/01/03 07:24:38;;;;;;;;;8.33;8.33;;;;;10.10;69.64;102020.00;5112975;27;46129;-60
2023/01/03 07:27:03;;;;;;;;;12.67;12.00;;;;;10.10;70.54;102020.00;5103737;27;45479;-57
2023/01/03 07:29:28;;;;;;;;;10.67;9.00;;;;;10.03;70.37;102028.84;5114463;27;45538;-59
2023/01/03 07:31:53;;;;;;;;;8.00;8.00;;;;;9.98;70.27;102022.78;5115148;27;45580;-59
2023/01/03 07:34:19;;;;;;;;;11.67;7.00;;;;;10.04;70.64;102026.19;5116751;27;45526;-58
2023/01/03 07:36:44;;;;;;;;;8.00;8.00;;;;;10.02;70.21;102029.72;5116016;27;45510;-59
2023/01/03 07:39:09;;;;;;;;;15.00;13.67;;;;;10.06;70.45;102037.56;5116303;27;45472;-59
2023/01/03 07:44:19;;;;;;;;;11.00;9.00;;;;;10.05;70.72;102035.84;5116569;27;45789;-59
2023/01/03 07:46:44;;;;;;;;;8.33;8.33;;;;;10.02;70.30;102032.34;5116636;27;45527;-58
2023/01/03 07:49:09;;;;;;;;;11.00;7.67;;;;;10.03;70.49;102031.47;5116966;27;45492;-58
2023/01/03 07:51:34;;;;;;;;;8.00;8.00;;;;;9.98;70.42;102028.03;5117068;27;45714;-58
2023/01/03 07:54:01;;;;;;;;;9.00;9.00;;;;;10.02;70.60;102038.50;5114811;27;46489;-59
2023/01/03 07:56:26;;;;;;;;;6.33;4.67;;;;;9.97;70.78;102037.69;5116641;27;45440;-58
2023/01/03 07:58:52;;;;;;;;;7.33;6.00;;;;;9.91;70.75;102046.50;5116637;27;45483;-59
2023/01/03 08:01:21;;;;;;;;;9.33;7.00;;;;;9.88;71.08;102054.38;5116726;27;45412;-58
2023/01/03 08:03:46;;;;;;;;;6.00;6.00;;;;;9.88;70.83;102050.88;5116113;27;46227;-58
2023/01/03 08:06:14;;;;;;;;;11.67;9.00;;;;;9.89;70.68;102052.66;5116419;27;45558;-59
2023/01/03 08:08:40;;;;;;;;;12.00;11.00;;;;;9.91;70.85;102058.72;5116409;27;45551;-58
2023/01/03 08:13:53;;;;;;;;;13.67;11.00;;;;;9.97;70.58;102063.97;5116206;27;45522;-58
2023/01/03 08:16:18;;;;;;;;;14.67;11.00;;;;;9.99;71.08;102066.56;5116019;27;45475;-59
2023/01/03 08:18:44;;;;;;;;;13.00;12.67;;;;;10.02;70.91;102077.94;5116284;27;45782;-59
2023/01/03 08:21:12;;;;;;;;;18.33;18.33;;;;;10.00;70.55;102077.06;5116299;27;45542;-58
2023/01/03 08:23:39;;;;;;;;;13.67;11.33;;;;;9.87;70.79;102060.53;5114993;27;46358;-59
2023/01/03 08:26:09;;;;;;;;;14.00;12.67;;;;;9.87;70.97;102064.91;5116126;27;45496;-59
2023/01/03 08:28:35;;;;;;;;;16.33;14.00;;;;;9.87;71.43;102081.56;5116322;27;45516;-59
2023/01/03 08:31:05;;;;;;;;;17.33;15.33;;;;;9.81;71.43;102073.72;5114455;27;45445;-59
2023/01/03 08:33:37;;;;;;;;;21.00;18.00;;;;;9.90;71.41;102081.53;5114401;27;48374;-59
2023/01/03 08:36:06;;;;;;;;;16.33;12.33;;;;;9.87;71.08;102070.19;5115776;27;45475;-60
2023/01/03 08:38:39;;;;;;;;;21.75;19.50;;;;;9.91;71.21;102074.50;5116175;27;45509;-59
2023/01/03 08:41:08;;;;;;;;;18.67;13.67;;;;;9.95;71.01;102077.09;5115758;27;46063;-59
2023/01/03 08:43:37;;;;;;;;;12.67;12.33;;;;;9.99;71.07;102082.31;5115711;27;45977;-59
2023/01/03 08:46:06;;;;;;;;;13.00;13.00;;;;;10.00;71.05;102077.06;5115659;27;45542;-59
2023/01/03 08:48:32;;;;;;;;;14.00;12.67;;;;;9.99;71.06;102084.94;5115988;27;46045;-59
2023/01/03 08:50:58;;;;;;;;;11.33;11.00;;;;;9.99;70.45;102079.69;5115643;27;45538;-59
2023/01/03 08:53:23;;;;;;;;;10.00;10.00;;;;;10.05;70.11;102082.28;5113117;27;46456;-60
2023/01/03 08:55:49;;;;;;;;;10.67;10.67;;;;;10.05;70.37;102083.16;5115511;27;45638;-59
2023/01/03 08:58:14;;;;;;;;;18.33;14.00;;;;;10.02;70.46;102072.66;5115548;27;45451;-60
2023/01/03 09:00:40;;;;;;;;;15.00;14.00;;;;;10.07;69.77;102069.97;5115792;27;45499;-60
2023/01/03 09:03:05;;;;;;;;;14.67;12.67;;;;;10.06;69.75;102084.03;5114682;27;46363;-59
2023/01/03 09:05:30;;;;;;;;;14.00;12.33;;;;;10.09;69.76;102089.25;5098083;27;45462;-59
2023/01/03 09:07:57;;;;;;;;;9.67;9.67;;;;;10.05;69.77;102088.41;5115671;27;45450;-59
2023/01/03 09:10:22;;;;;;;;;13.00;10.00;;;;;10.05;69.94;102098.06;5114200;27;45467;-59
2023/01/03 09:12:48;;;;;;;;;10.67;10.67;;;;;10.00;69.70;102087.56;5114584;27;46153;-59
2023/01/03 09:15:13;;;;;;;;;15.00;9.67;;;;;10.02;69.86;102098.06;5114240;27;45513;-60
2023/01/03 09:17:43;;;;;;;;;13.67;12.67;;;;;10.00;69.99;102092.84;5115399;27;45460;-60
2023/01/03 09:20:11;;;;;;;;;15.33;15.00;;;;;9.98;70.49;102091.97;5115565;27;45525;-60
2023/01/03 09:22:37;;;;;;;;;14.33;14.00;;;;;10.03;69.84;102094.56;5114926;27;45534;-60
2023/01/03 09:25:02;;;;;;;;;13.33;12.67;;;;;10.04;69.77;102099.78;5115055;27;45478;-60
2023/01/03 09:27:27;;;;;;;;;15.00;15.00;;;;;10.02;69.80;102095.44;5115161;27;45467;-60
2023/01/03 09:29:53;;;;;;;;;10.33;9.00;;;;;10.00;70.15;102115.63;5115080;27;45527;-60
2023/01/03 09:32:18;;;;;;;;;17.67;13.33;;;;;10.00;69.94;102105.13;5114862;27;46602;-60
2023/01/03 09:34:43;;;;;;;;;12.00;9.00;;;;;9.95;70.02;102106.00;5115147;27;45555;-60
2023/01/03 09:37:10;;;;;;;;;16.00;12.00;;;;;9.87;69.83;102097.31;5115107;27;45594;-60
2023/01/03 09:39:35;;;;;;;;;9.67;9.00;;;;;9.88;70.21;102101.69;5114815;27;45478;-60
2023/01/03 09:44:48;;;;;;;;;10.33;8.00;;;;;9.80;69.79;102100.00;5115024;27;45483;-60
2023/01/03 09:47:21;;;;;;;;;8.00;8.00;;;;;9.77;70.16;102105.28;5114959;27;45406;-59
2023/01/03 09:49:47;;;;;;;;;12.67;9.67;;;;;9.78;70.17;102101.75;5114824;27;45412;-60
2023/01/03 10:03:57;;;;;;;;;14.33;13.00;;;;;9.82;70.61;102112.25;5114595;27;45676;-59
2023/01/03 10:06:40;;;;;;;;;12.67;10.00;;;;;9.80;70.57;102103.50;5114817;27;45385;-59
2023/01/03 10:09:17;;;;;;;;;13.67;13.67;;;;;9.86;70.13;102108.72;5113984;27;45491;-60
2023/01/03 10:12:10;;;;;;;;;12.67;12.00;;;;;9.81;70.50;102107.88;5113512;27;45503;-60
2023/01/03 10:15:18;;;;;;;;;9.67;9.67;;;;;9.78;70.77;102110.53;5106916;27;46763;-59
2023/01/03 10:18:10;;;;;;;;;7.67;7.67;;;;;9.83;70.57;102110.47;5113202;27;45552;-59
2023/01/03 10:21:00;;;;;;;;;10.33;10.33;;;;;9.84;70.54;102110.50;5114477;27;45575;-60
2023/01/03 10:23:26;;;;;;;;;10.00;9.00;;;;;9.73;70.21;102096.56;5114564;27;45568;-59
2023/01/03 10:25:51;;;;;;;;;9.00;8.33;;;;;9.84;70.40;102120.13;5102893;27;46199;-59
2023/01/03 10:28:26;;;;;;;;;17.33;10.33;;;;;9.89;70.65;102124.47;5117540;27;45546;-59
2023/01/03 10:31:39;;;;;;;;;9.33;8.33;;;;;9.93;70.25;102127.94;5118017;27;45534;-59
2023/01/03 10:34:06;;;;;;;;;11.00;10.67;;;;;9.92;70.17;102131.44;5074129;28;46109;-60
2023/01/03 10:36:31;;;;;;;;;6.33;6.33;;;;;9.91;70.06;102133.22;5074521;28;45554;-59
2023/01/03 10:39:07;;;;;;;;;7.00;6.00;;;;;9.90;69.69;102131.44;5094442;27;45430;-60
2023/01/03 10:41:41;;;;;;;;;12.00;9.33;;;;;9.89;70.10;102123.59;5104718;27;46277;-59
2023/01/03 10:44:19;;;;;;;;;9.33;8.33;;;;;9.88;70.20;102129.72;5117633;27;45482;-59
2023/01/03 10:46:50;;;;;;;;;9.33;8.00;;;;;9.90;69.93;102127.97;5116605;27;46328;-59
2023/01/03 10:49:24;;;;;;;;;13.00;12.00;;;;;9.95;70.21;102129.66;5116145;27;45472;-59
2023/01/03 10:51:54;;;;;;;;;7.33;7.33;;;;;10.01;70.31;102127.88;5117738;27;45550;-59
2023/01/03 10:54:19;;;;;;;;;13.00;13.00;;;;;10.00;71.09;102119.13;5117532;27;45476;-60
2023/01/03 10:56:46;;;;;;;;;18.67;15.00;;;;;9.99;70.26;102122.59;5116075;27;47494;-59
2023/01/03 10:59:24;;;;;;;;;12.00;9.67;;;;;10.00;69.93;102121.75;5117584;27;45586;-59
2023/01/03 11:02:15;;;;;;;;;13.33;11.67;;;;;9.99;70.45;102121.75;5103333;27;45506;-60
2023/01/03 11:04:41;;;;;;;;;10.67;8.67;;;;;10.01;70.60;102118.22;5117607;27;45663;-59
2023/01/03 11:07:07;;;;;;;;;12.67;11.33;;;;;10.07;70.19;102125.19;5117088;27;46233;-60
2023/01/03 11:09:43;;;;;;;;;12.33;12.33;;;;;10.05;70.41;102121.72;5117279;27;45498;-60
2023/01/03 11:12:22;;;;;;;;;14.33;14.33;;;;;10.09;69.89;102115.53;5117149;27;45518;-60
2023/01/03 11:14:49;;;;;;;;;16.33;16.33;;;;;10.07;69.70;102125.19;5115390;27;45623;-60
2023/01/03 11:17:19;;;;;;;;;11.00;11.00;;;;;10.02;70.21;102112.09;5115853;27;46176;-60
2023/01/03 11:19:45;;;;;;;;;14.33;13.00;;;;;10.06;70.24;102119.06;5117079;27;45606;-59
2023/01/03 11:22:19;;;;;;;;;9.33;9.33;;;;;10.04;70.32;102118.19;5115459;27;45500;-59
2023/01/03 11:25:14;;;;;;;;;8.67;8.67;;;;;10.10;69.87;102122.53;5117446;27;45404;-60
2023/01/03 11:27:58;;;;;;;;;8.33;8.33;;;;;10.13;69.77;102099.72;5116668;27;46781;-60
2023/01/03 11:30:49;;;;;;;;;9.00;9.00;;;;;10.13;70.07;102112.00;5117242;27;45405;-60
2023/01/03 11:33:25;;;;;;;;;13.67;9.00;;;;;10.17;69.75;102103.19;5105549;27;45590;-60
2023/01/03 11:35:59;;;;;;;;;8.00;8.00;;;;;10.14;69.79;102087.44;5116874;27;45543;-59
2023/01/03 11:38:46;;;;;;;;;8.00;8.00;;;;;10.07;70.16;102099.75;5116075;27;45534;-60
2023/01/03 11:41:27;;;;;;;;;9.00;9.00;;;;;10.07;70.06;102101.53;5116644;27;45539;-60
2023/01/03 11:44:43;;;;;;;;;9.00;8.00;;;;;10.06;69.90;102090.13;5117039;27;45538;-59
2023/01/03 11:47:23;;;;;;;;;13.33;12.00;;;;;10.10;70.43;102099.75;5105167;27;46156;-59
2023/01/03 11:50:32;;;;;;;;;7.67;7.67;;;;;10.14;70.71;102092.69;5116183;27;45635;-59
2023/01/03 11:53:03;;;;;;;;;12.33;9.33;;;;;10.11;69.93;102092.75;5111464;27;45488;-59
2023/01/03 11:55:44;;;;;;;;;8.00;8.00;;;;;10.07;70.48;102089.25;5112475;27;45515;-60
2023/01/03 11:58:27;;;;;;;;;9.67;8.00;;;;;10.11;69.89;102088.34;5115759;27;45463;-59
2023/01/03 12:01:18;;;;;;;;;8.67;7.00;;;;;10.09;70.61;102078.72;5116981;27;46595;-59
2023/01/03 12:04:01;;;;;;;;;9.67;9.67;;;;;10.15;69.99;102083.91;5115711;27;45467;-60
2023/01/03 12:07:02;;;;;;;;;7.67;7.67;;;;;10.19;70.18;102077.75;5117353;27;45504;-59
2023/01/03 12:10:07;;;;;;;;;15.00;13.00;;;;;10.12;70.63;102055.03;5106678;27;45421;-60
2023/01/03 12:13:03;;;;;;;;;9.00;7.33;;;;;10.25;69.72;102067.16;5104365;27;45578;-60
2023/01/03 12:15:40;;;;;;;;;7.00;6.00;;;;;10.18;70.19;102065.47;5113106;27;45520;-59
2023/01/03 12:18:16;;;;;;;;;7.33;7.33;;;;;10.13;70.30;102054.16;5111103;27;45572;-59
2023/01/03 12:20:47;;;;;;;;;9.67;8.67;;;;;10.12;70.71;102055.91;5112821;27;46029;-59
2023/01/03 12:23:28;;;;;;;;;8.00;8.00;;;;;10.21;70.97;102057.59;5115371;27;45470;-59
2023/01/03 12:25:59;;;;;;;;;11.33;9.00;;;;;10.25;70.38;102059.28;5116454;27;45494;-59
2023/01/03 12:28:37;;;;;;;;;10.67;9.00;;;;;10.09;70.92;102034.03;5115135;27;45507;-60
2023/01/03 12:31:18;;;;;;;;;8.67;8.67;;;;;10.26;70.48;102058.41;5116425;27;45586;-59
2023/01/03 12:34:01;;;;;;;;;8.00;8.00;;;;;10.29;70.93;102060.16;5115245;27;46726;-59
2023/01/03 12:36:26;;;;;;;;;9.67;7.00;;;;;10.32;69.49;102063.63;5102687;27;45526;-57